createdAt,value
2022-12-23T00:00:41.005Z,8.80
2022-12-23T00:03:08.447Z,8.90
2022-12-23T00:05:41.802Z,8.90
2022-12-23T00:08:09.045Z,8.90
2022-12-23T00:10:39.867Z,8.90
2022-12-23T00:13:27.160Z,8.90
2022-12-23T00:16:07.767Z,8.90
2022-12-23T00:18:35.879Z,8.90
2022-12-23T00:21:08.926Z,8.90
2022-12-23T00:23:40.250Z,8.90
2022-12-23T00:26:08.299Z,8.90
2022-12-23T00:28:35.483Z,8.90
2022-12-23T00:31:09.568Z,8.90
2022-12-23T00:33:40.204Z,8.90
2022-12-23T00:36:28.619Z,9.00
2022-12-23T00:39:16.089Z,9.00
2022-12-23T00:42:01.864Z,9.00
2022-12-23T00:44:29.368Z,9.00
2022-12-23T00:46:56.434Z,9.00
2022-12-23T00:49:42.044Z,9.00
2022-12-23T00:52:14.197Z,9.00
2022-12-23T00:54:41.279Z,9.00
2022-12-23T00:57:08.402Z,9.00
2022-12-23T00:59:35.843Z,9.00
2022-12-23T01:02:22.112Z,9.00
2022-12-23T01:05:07.560Z,9.00
2022-12-23T01:07:34.924Z,9.00
2022-12-23T01:10:02.099Z,9.00
2022-12-23T01:12:29.216Z,9.00
2022-12-23T01:14:56.304Z,9.10
2022-12-23T01:17:23.459Z,9.00
2022-12-23T01:19:51.653Z,9.00
2022-12-23T01:22:18.997Z,9.00
2022-12-23T01:24:46.048Z,9.00
2022-12-23T01:27:13.104Z,9.10
2022-12-23T01:29:40.312Z,9.10
2022-12-23T01:32:07.967Z,9.10
2022-12-23T01:34:37.424Z,9.10
2022-12-23T01:37:05.392Z,9.00
2022-12-23T01:39:32.757Z,9.10
2022-12-23T01:42:18.451Z,9.10
2022-12-23T01:45:02.233Z,9.10
2022-12-23T01:48:05.755Z,9.10
2022-12-23T01:50:54.167Z,9.10
2022-12-23T01:53:30.163Z,9.20
2022-12-23T01:56:05.972Z,9.20
2022-12-23T01:58:39.468Z,9.20
2022-12-23T02:01:25.954Z,9.10
2022-12-23T02:03:58.257Z,9.20
2022-12-23T02:06:53.203Z,9.20
2022-12-23T02:09:26.817Z,9.20
2022-12-23T02:12:33.474Z,9.30
2022-12-23T02:15:35.868Z,9.30
2022-12-23T02:18:27.446Z,9.30
2022-12-23T02:21:13.038Z,9.30
2022-12-23T02:24:35.251Z,9.30
2022-12-23T02:27:13.953Z,9.30
2022-12-23T02:30:14.642Z,9.30
2022-12-23T02:33:04.662Z,9.30
2022-12-23T02:35:43.376Z,9.30
2022-12-23T02:38:21.549Z,9.40
2022-12-23T02:41:18.942Z,9.40
2022-12-23T02:43:59.895Z,9.40
2022-12-23T02:46:39.746Z,9.40
2022-12-23T02:49:20.991Z,9.40
2022-12-23T02:51:54.183Z,9.40
2022-12-23T02:54:32.990Z,9.40
2022-12-23T02:57:04.181Z,9.40
2022-12-23T02:59:43.891Z,9.40
2022-12-23T03:02:11.214Z,9.50
2022-12-23T03:04:38.386Z,9.60
2022-12-23T03:07:08.023Z,9.60
2022-12-23T03:10:07.114Z,9.60
2022-12-23T03:13:20.441Z,9.60
2022-12-23T03:16:23.268Z,9.60
2022-12-23T03:19:05.012Z,9.60
2022-12-23T03:22:17.711Z,9.50
2022-12-23T03:24:55.521Z,9.50
2022-12-23T03:27:40.592Z,9.50
2022-12-23T03:30:17.249Z,9.60
2022-12-23T03:33:05.116Z,9.60
2022-12-23T03:35:40.235Z,9.60
2022-12-23T03:38:10.526Z,9.60
2022-12-23T03:40:44.061Z,9.60
2022-12-23T03:43:20.583Z,9.60
2022-12-23T03:45:57.464Z,9.60
2022-12-23T03:48:32.249Z,9.60
2022-12-23T03:51:06.002Z,9.60
2022-12-23T03:53:38.996Z,9.60
2022-12-23T03:56:17.337Z,9.60
2022-12-23T03:59:09.392Z,9.60
2022-12-23T04:02:07.687Z,9.60
2022-12-23T04:05:25.433Z,9.60
2022-12-23T04:08:26.253Z,9.60
2022-12-23T04:10:53.981Z,9.60
2022-12-23T04:13:21.071Z,9.60
2022-12-23T04:15:48.294Z,9.70
2022-12-23T04:18:16.965Z,9.60
2022-12-23T04:20:44.026Z,9.60
2022-12-23T04:23:11.341Z,9.60
2022-12-23T04:25:38.500Z,9.60
2022-12-23T04:28:05.798Z,9.70
2022-12-23T04:30:34.767Z,9.70
2022-12-23T04:33:02.862Z,9.70
2022-12-23T04:35:30.806Z,9.70
2022-12-23T04:37:58.024Z,9.60
2022-12-23T04:40:25.120Z,9.50
2022-12-23T04:42:52.249Z,9.50
2022-12-23T04:45:19.404Z,9.50
2022-12-23T04:47:46.471Z,9.50
2022-12-23T04:50:17.287Z,9.40
2022-12-23T04:52:44.744Z,9.40
2022-12-23T04:55:12.288Z,9.40
2022-12-23T04:57:40.065Z,9.40
2022-12-23T05:00:08.280Z,9.40
2022-12-23T05:02:35.538Z,9.30
2022-12-23T05:05:03.176Z,9.20
2022-12-23T05:07:30.388Z,9.20
2022-12-23T05:10:01.877Z,9.20
2022-12-23T05:12:30.642Z,9.20
2022-12-23T05:14:57.769Z,9.00
2022-12-23T05:17:24.896Z,8.90
2022-12-23T05:19:51.996Z,8.90
2022-12-23T05:22:19.195Z,8.80
2022-12-23T05:24:46.284Z,8.80
2022-12-23T05:27:13.570Z,8.70
2022-12-23T05:29:40.759Z,8.70
2022-12-23T05:32:08.360Z,8.70
2022-12-23T05:34:35.525Z,8.70
2022-12-23T05:37:02.550Z,8.60
2022-12-23T05:39:29.640Z,8.60
2022-12-23T05:41:56.772Z,8.60
2022-12-23T05:44:23.811Z,8.60
2022-12-23T05:46:50.911Z,8.60
2022-12-23T05:49:18.122Z,8.70
2022-12-23T05:51:45.288Z,8.70
2022-12-23T05:54:12.388Z,8.80
2022-12-23T05:56:39.507Z,8.80
2022-12-23T05:59:06.631Z,8.90
2022-12-23T06:01:33.746Z,8.90
2022-12-23T06:04:01.003Z,9.00
2022-12-23T06:06:28.853Z,9.10
2022-12-23T06:08:59.584Z,9.10
2022-12-23T06:11:28.019Z,9.20
2022-12-23T06:13:55.173Z,9.30
2022-12-23T06:16:22.354Z,9.30
2022-12-23T06:18:49.503Z,9.30
2022-12-23T06:21:16.622Z,9.30
2022-12-23T06:23:44.963Z,9.40
2022-12-23T06:26:12.040Z,9.30
2022-12-23T06:28:39.131Z,9.30
2022-12-23T06:31:06.224Z,9.30
2022-12-23T06:33:33.390Z,9.30
2022-12-23T06:36:00.450Z,9.40
2022-12-23T06:38:27.539Z,9.30
2022-12-23T06:40:54.628Z,9.40
2022-12-23T06:43:22.585Z,9.40
2022-12-23T06:45:49.861Z,9.40
2022-12-23T06:48:18.779Z,9.40
2022-12-23T06:50:46.470Z,9.50
2022-12-23T06:53:13.595Z,9.60
2022-12-23T06:55:40.795Z,9.60
2022-12-23T06:58:08.076Z,9.50
2022-12-23T07:00:35.332Z,9.50
2022-12-23T07:03:02.561Z,9.50
2022-12-23T07:05:36.725Z,9.50
2022-12-23T07:08:05.118Z,9.60
2022-12-23T07:10:32.349Z,9.50
2022-12-23T07:12:59.403Z,9.60
2022-12-23T07:15:26.616Z,9.60
2022-12-23T07:17:55.036Z,9.60
2022-12-23T07:20:22.091Z,9.60
2022-12-23T07:22:50.397Z,9.70
2022-12-23T07:25:17.491Z,9.60
2022-12-23T07:27:44.624Z,9.60
2022-12-23T07:30:12.015Z,9.60
2022-12-23T07:32:39.139Z,9.60
2022-12-23T07:35:06.831Z,9.50
2022-12-23T07:37:33.885Z,9.60
2022-12-23T07:40:06.499Z,9.60
2022-12-23T07:42:50.680Z,9.50
2022-12-23T07:45:17.795Z,9.50
2022-12-23T07:47:45.287Z,9.50
2022-12-23T07:50:12.723Z,9.50
2022-12-23T07:52:42.938Z,9.50
2022-12-23T07:55:10.292Z,9.60
2022-12-23T07:57:40.787Z,9.60
2022-12-23T08:00:11.063Z,9.70
2022-12-23T08:02:38.264Z,9.70
2022-12-23T08:05:06.365Z,9.70
2022-12-23T08:07:33.708Z,9.80
2022-12-23T08:10:00.813Z,9.80
2022-12-23T08:12:27.901Z,9.80
2022-12-23T08:14:55.027Z,9.80
2022-12-23T08:17:22.549Z,9.80
2022-12-23T08:19:49.977Z,9.90
2022-12-23T08:22:17.350Z,9.90
2022-12-23T08:24:46.805Z,9.90
2022-12-23T08:27:14.025Z,9.90
2022-12-23T08:29:41.328Z,10.00
2022-12-23T08:32:09.837Z,9.90
2022-12-23T08:34:37.036Z,9.90
2022-12-23T08:37:04.257Z,9.90
2022-12-23T08:39:31.349Z,9.90
2022-12-23T08:41:58.622Z,9.90
2022-12-23T08:44:28.469Z,9.90
2022-12-23T08:46:56.174Z,9.90
2022-12-23T08:49:23.824Z,9.90
2022-12-23T08:51:51.384Z,10.00
2022-12-23T08:54:20.492Z,10.00
2022-12-23T08:56:47.712Z,9.90
2022-12-23T08:59:19.559Z,9.90
2022-12-23T09:01:48.171Z,9.90
2022-12-23T09:04:15.698Z,10.00
2022-12-23T09:06:44.023Z,10.10
2022-12-23T09:09:13.761Z,10.10
2022-12-23T09:11:40.839Z,10.20
2022-12-23T09:14:10.300Z,10.20
2022-12-23T09:16:38.981Z,10.20
2022-12-23T09:19:06.220Z,10.20
2022-12-23T09:21:33.731Z,10.20
2022-12-23T09:24:00.967Z,10.10
2022-12-23T09:26:30.705Z,10.10
2022-12-23T09:28:58.693Z,10.10
2022-12-23T09:31:30.813Z,10.10
2022-12-23T09:34:01.457Z,10.20
2022-12-23T09:36:29.943Z,10.20
2022-12-23T09:38:58.111Z,10.30
2022-12-23T09:41:48.586Z,10.30
2022-12-23T09:44:44.692Z,10.30
2022-12-23T09:47:18.621Z,10.30
2022-12-23T09:50:00.151Z,10.30
2022-12-23T09:53:01.089Z,10.30
2022-12-23T09:55:55.299Z,10.20
2022-12-23T09:58:48.602Z,10.20
2022-12-23T10:01:53.908Z,10.10
2022-12-23T10:04:31.567Z,10.00
2022-12-23T10:07:04.833Z,10.00
2022-12-23T10:09:40.210Z,10.00
2022-12-23T10:12:39.132Z,9.90
2022-12-23T10:15:40.409Z,9.90
2022-12-23T10:18:41.148Z,9.90
2022-12-23T10:21:19.466Z,9.90
2022-12-23T10:23:52.250Z,10.00
2022-12-23T10:26:51.984Z,9.90
2022-12-23T10:29:23.475Z,9.90
2022-12-23T10:32:19.670Z,9.90
2022-12-23T10:35:26.821Z,9.90
2022-12-23T10:38:16.550Z,9.90
2022-12-23T10:41:09.642Z,9.90
2022-12-23T10:43:55.621Z,9.90
2022-12-23T10:46:31.937Z,9.90
2022-12-23T10:49:29.496Z,9.90
2022-12-23T10:52:19.534Z,10.00
2022-12-23T10:54:48.811Z,10.00
2022-12-23T10:57:18.619Z,10.00
2022-12-23T10:59:46.047Z,10.10
2022-12-23T11:02:13.485Z,10.10
2022-12-23T11:04:44.966Z,10.00
2022-12-23T11:07:45.805Z,10.00
2022-12-23T11:10:23.872Z,10.00
2022-12-23T11:12:53.724Z,10.10
2022-12-23T11:15:38.428Z,10.10
2022-12-23T11:18:18.573Z,10.20
2022-12-23T11:21:03.593Z,10.20
2022-12-23T11:23:36.695Z,10.20
2022-12-23T11:26:18.983Z,10.20
2022-12-23T11:28:53.118Z,10.20
2022-12-23T11:31:35.395Z,10.20
2022-12-23T11:34:06.436Z,10.30
2022-12-23T11:36:35.092Z,10.30
2022-12-23T11:39:14.232Z,10.30
2022-12-23T11:41:52.548Z,10.30
2022-12-23T11:44:47.791Z,10.40
2022-12-23T11:47:22.300Z,10.40
2022-12-23T11:50:03.218Z,10.40
2022-12-23T11:52:33.813Z,10.40
2022-12-23T11:55:06.005Z,10.40
2022-12-23T11:57:45.035Z,10.40
2022-12-23T12:00:18.728Z,10.40
2022-12-23T12:02:49.868Z,10.40
2022-12-23T12:05:23.262Z,10.40
2022-12-23T12:07:52.179Z,10.30
2022-12-23T12:10:27.124Z,10.30
2022-12-23T12:13:02.559Z,10.30
2022-12-23T12:16:04.669Z,10.30
2022-12-23T12:18:33.799Z,10.30
2022-12-23T12:21:06.324Z,10.30
2022-12-23T12:24:17.278Z,10.30
2022-12-23T12:26:51.238Z,10.20
2022-12-23T12:29:33.136Z,10.20
2022-12-23T12:32:01.831Z,10.30
2022-12-23T12:35:10.575Z,10.30
2022-12-23T12:38:27.456Z,10.40
2022-12-23T12:41:29.045Z,10.50
2022-12-23T12:44:16.321Z,10.50
2022-12-23T12:46:49.709Z,10.60
2022-12-23T12:49:36.213Z,10.60
2022-12-23T12:52:20.731Z,10.70
2022-12-23T12:54:56.778Z,10.70
2022-12-23T12:57:25.480Z,10.80
2022-12-23T13:00:05.259Z,10.80
2022-12-23T13:03:26.821Z,10.80
2022-12-23T13:06:53.968Z,10.90
2022-12-23T13:09:46.607Z,10.90
2022-12-23T13:12:38.868Z,10.90
2022-12-23T13:15:20.918Z,11.00
2022-12-23T13:18:03.685Z,11.00
2022-12-23T13:20:45.387Z,11.10
2022-12-23T13:26:50.536Z,11.10
2022-12-23T13:29:56.164Z,11.10
2022-12-23T13:32:51.645Z,11.10
2022-12-23T13:36:07.902Z,11.10
2022-12-23T13:38:56.572Z,11.10
2022-12-23T13:41:47.511Z,11.10
2022-12-23T13:44:18.859Z,11.20
2022-12-23T13:47:08.547Z,11.20
2022-12-23T13:49:59.570Z,11.20
2022-12-23T13:53:08.441Z,11.20
2022-12-23T13:55:57.634Z,11.20
2022-12-23T13:58:31.406Z,11.30
2022-12-23T14:01:22.173Z,11.40
2022-12-23T14:03:50.878Z,11.40
2022-12-23T14:06:21.167Z,11.40
2022-12-23T14:08:49.007Z,11.40
2022-12-23T14:11:23.462Z,11.40
2022-12-23T14:13:50.506Z,11.40
2022-12-23T14:16:37.575Z,11.40
2022-12-23T14:19:32.448Z,11.50
2022-12-23T14:22:37.221Z,11.50
2022-12-23T14:25:28.507Z,11.50
2022-12-23T14:28:32.797Z,11.50
2022-12-23T14:31:00.225Z,11.50
2022-12-23T14:33:36.143Z,11.50
2022-12-23T14:36:26.788Z,11.60
2022-12-23T14:39:12.314Z,11.60
2022-12-23T14:41:50.635Z,11.60
2022-12-23T14:44:43.795Z,11.70
2022-12-23T14:47:33.070Z,11.70
2022-12-23T14:50:37.272Z,11.70
2022-12-23T14:53:24.657Z,11.70
2022-12-23T14:56:19.143Z,11.70
2022-12-23T14:58:52.558Z,11.70
2022-12-23T15:02:02.284Z,11.70
2022-12-23T15:04:47.005Z,11.70
2022-12-23T15:07:25.164Z,11.80
2022-12-23T15:10:01.867Z,11.80
2022-12-23T15:12:34.727Z,11.80
2022-12-23T15:15:22.400Z,11.70
2022-12-23T15:18:00.646Z,11.80
2022-12-23T15:20:27.939Z,11.70
2022-12-23T15:23:01.387Z,11.80
2022-12-23T15:25:33.293Z,11.80
2022-12-23T15:28:03.586Z,11.70
2022-12-23T15:30:47.311Z,11.70
2022-12-23T15:34:00.927Z,11.80
2022-12-23T15:36:10.765Z,11.80
2022-12-23T15:38:39.602Z,11.80
2022-12-23T15:41:16.303Z,11.80
2022-12-23T15:43:44.884Z,11.80
2022-12-23T15:46:27.227Z,11.80
2022-12-23T15:48:57.563Z,11.80
2022-12-23T15:54:29.946Z,11.80
2022-12-23T15:56:59.496Z,11.80
2022-12-23T15:59:35.579Z,11.90
2022-12-23T16:05:31.457Z,11.90
2022-12-23T16:08:16.655Z,11.90
2022-12-23T16:11:13.449Z,11.80
2022-12-23T16:13:58.082Z,11.80
2022-12-23T16:16:43.607Z,11.80
2022-12-23T16:19:52.813Z,11.80
2022-12-23T16:22:27.813Z,11.80
2022-12-23T16:25:32.190Z,11.80
2022-12-23T16:28:21.654Z,11.80
2022-12-23T16:30:55.014Z,11.80
2022-12-23T16:33:52.243Z,11.80
2022-12-23T16:36:26.512Z,11.80
2022-12-23T16:39:22.274Z,11.80
2022-12-23T16:41:50.286Z,11.80
2022-12-23T16:44:17.613Z,11.90
2022-12-23T16:46:49.163Z,11.90
2022-12-23T16:49:19.617Z,11.90
2022-12-23T16:51:47.607Z,11.90
2022-12-23T16:54:19.405Z,11.90
2022-12-23T16:56:47.027Z,11.80
2022-12-23T16:59:14.855Z,11.80
2022-12-23T17:01:49.284Z,11.80
2022-12-23T17:04:16.875Z,11.80
2022-12-23T17:06:46.578Z,11.80
2022-12-23T17:09:13.947Z,11.80
2022-12-23T17:11:46.591Z,11.80
2022-12-23T17:14:23.692Z,11.80
2022-12-23T17:16:52.023Z,11.80
2022-12-23T17:19:27.235Z,11.80
2022-12-23T17:22:02.151Z,11.80
2022-12-23T17:24:29.347Z,11.80
2022-12-23T17:26:57.420Z,11.80
2022-12-23T17:29:25.331Z,11.80
2022-12-23T17:31:53.118Z,11.70
2022-12-23T17:34:23.509Z,11.80
2022-12-23T17:36:51.463Z,11.80
2022-12-23T17:39:20.001Z,11.80
2022-12-23T17:41:47.730Z,11.80
2022-12-23T17:44:17.618Z,11.80
2022-12-23T17:46:47.604Z,11.80
2022-12-23T17:49:14.818Z,11.80
2022-12-23T17:51:42.699Z,11.80
2022-12-23T17:54:24.309Z,11.80
2022-12-23T17:56:51.891Z,11.70
2022-12-23T17:59:20.518Z,11.70
2022-12-23T18:01:47.995Z,11.80
2022-12-23T18:04:15.198Z,11.70
2022-12-23T18:06:42.248Z,11.70
2022-12-23T18:09:09.342Z,11.70
2022-12-23T18:11:46.006Z,11.70
2022-12-23T18:14:28.130Z,11.70
2022-12-23T18:16:55.484Z,11.70
2022-12-23T18:19:22.641Z,11.70
2022-12-23T18:21:50.568Z,11.70
2022-12-23T18:24:18.465Z,11.70
2022-12-23T18:26:46.008Z,11.60
2022-12-23T18:29:13.253Z,11.60
2022-12-23T18:31:51.225Z,11.60
2022-12-23T18:34:20.037Z,11.50
2022-12-23T18:36:48.506Z,11.50
2022-12-23T18:39:15.818Z,11.50
2022-12-23T18:41:42.854Z,11.40
2022-12-23T18:44:20.057Z,11.50
2022-12-23T18:46:48.329Z,11.40
2022-12-23T18:49:15.514Z,11.40
2022-12-23T18:51:42.623Z,11.40
2022-12-23T18:54:17.012Z,11.40
2022-12-23T18:56:44.596Z,11.40
2022-12-23T18:59:21.319Z,11.30
2022-12-23T19:01:54.615Z,11.30
2022-12-23T19:04:21.709Z,11.20
2022-12-23T19:06:48.808Z,11.10
2022-12-23T19:09:22.743Z,11.00
2022-12-23T19:11:52.974Z,10.90
2022-12-23T19:14:20.137Z,10.90
2022-12-23T19:16:52.959Z,10.80
2022-12-23T19:19:21.849Z,10.80
2022-12-23T19:21:49.047Z,10.80
2022-12-23T19:24:16.264Z,10.80
2022-12-23T19:26:43.567Z,10.90
2022-12-23T19:29:10.672Z,10.90
2022-12-23T19:31:38.653Z,10.80
2022-12-23T19:34:11.106Z,10.80
2022-12-23T19:36:41.633Z,10.90
2022-12-23T19:39:17.281Z,10.90
2022-12-23T19:41:45.432Z,10.90
2022-12-23T19:44:12.741Z,10.90
2022-12-23T19:46:39.859Z,10.90
2022-12-23T19:49:06.993Z,10.90
2022-12-23T19:51:34.036Z,11.00
2022-12-23T19:54:01.117Z,10.90
2022-12-23T19:56:30.189Z,10.90
2022-12-23T19:58:57.260Z,10.90
2022-12-23T20:01:26.431Z,10.90
2022-12-23T20:03:55.559Z,10.90
2022-12-23T20:06:27.929Z,10.90
2022-12-23T20:09:00.388Z,10.90
2022-12-23T20:11:30.839Z,10.90
2022-12-23T20:13:59.221Z,10.90
2022-12-23T20:16:27.810Z,10.90
2022-12-23T20:18:56.349Z,10.90
2022-12-23T20:21:24.049Z,10.80
2022-12-23T20:23:51.786Z,10.80
2022-12-23T20:26:20.210Z,10.70
2022-12-23T20:28:47.763Z,10.70
2022-12-23T20:31:19.595Z,10.70
2022-12-23T20:33:51.421Z,10.70
2022-12-23T20:36:22.597Z,10.60
2022-12-23T20:38:52.072Z,10.50
2022-12-23T20:41:26.453Z,10.50
2022-12-23T20:44:32.581Z,10.50
2022-12-23T20:46:45.183Z,10.50
2022-12-23T20:49:12.570Z,10.40
2022-12-23T20:51:39.757Z,10.40
2022-12-23T20:54:06.926Z,10.30
2022-12-23T20:56:34.214Z,10.30
2022-12-23T20:59:04.188Z,10.20
2022-12-23T21:01:32.297Z,10.10
2022-12-23T21:04:03.299Z,10.20
2022-12-23T21:06:32.132Z,10.10
2022-12-23T21:09:00.983Z,10.10
2022-12-23T21:11:31.620Z,10.10
2022-12-23T21:14:06.913Z,10.10
2022-12-23T21:16:36.770Z,10.10
2022-12-23T21:19:06.082Z,10.10
2022-12-23T21:21:33.752Z,10.20
2022-12-23T21:24:04.794Z,10.10
2022-12-23T21:26:34.131Z,10.10
2022-12-23T21:29:04.111Z,10.10
2022-12-23T21:31:34.091Z,10.20
2022-12-23T21:34:01.905Z,10.20
2022-12-23T21:36:34.084Z,10.20
2022-12-23T21:39:01.893Z,10.30
2022-12-23T21:41:41.305Z,10.30
2022-12-23T21:44:10.494Z,10.30
2022-12-23T21:46:37.805Z,10.30
2022-12-23T21:49:05.091Z,10.40
2022-12-23T21:51:40.239Z,10.30
2022-12-23T21:54:10.212Z,10.30
2022-12-23T21:56:38.056Z,10.30
2022-12-23T21:59:08.779Z,10.30
2022-12-23T22:01:36.100Z,10.20
2022-12-23T22:04:03.724Z,10.30
2022-12-23T22:06:37.578Z,10.30
2022-12-23T22:09:07.331Z,10.30
2022-12-23T22:11:36.698Z,10.30
2022-12-23T22:14:07.838Z,10.30
2022-12-23T22:16:36.418Z,10.40
2022-12-23T22:19:05.837Z,10.50
2022-12-23T22:21:35.345Z,10.50
2022-12-23T22:24:03.664Z,10.50
2022-12-23T22:26:33.019Z,10.50
2022-12-23T22:29:04.468Z,10.40
2022-12-23T22:31:53.319Z,10.40
2022-12-23T22:34:22.702Z,10.30
2022-12-23T22:36:50.880Z,10.30
2022-12-23T22:39:21.892Z,10.20
2022-12-23T22:41:51.270Z,10.20
2022-12-23T22:44:19.593Z,10.10
2022-12-23T22:46:46.814Z,10.10
2022-12-23T22:49:15.700Z,10.20
2022-12-23T22:51:44.018Z,10.10
2022-12-23T22:54:11.080Z,10.10
2022-12-23T22:56:39.825Z,10.00
2022-12-23T22:59:07.280Z,9.90
2022-12-23T23:01:36.634Z,9.80
2022-12-23T23:04:05.174Z,9.80
2022-12-23T23:06:37.817Z,9.70
2022-12-23T23:09:12.280Z,9.80
2022-12-23T23:11:41.260Z,9.80
2022-12-23T23:14:09.736Z,9.80
2022-12-23T23:16:37.128Z,9.90
2022-12-23T23:19:06.413Z,9.90
2022-12-23T23:21:34.308Z,9.90
2022-12-23T23:24:01.435Z,10.00
2022-12-23T23:26:28.620Z,9.90
2022-12-23T23:28:56.666Z,9.90
2022-12-23T23:34:12.550Z,10.10
2022-12-23T23:36:40.716Z,10.10
2022-12-23T23:39:08.853Z,10.10
2022-12-23T23:41:36.008Z,10.10
2022-12-23T23:44:03.258Z,10.00
2022-12-23T23:46:31.856Z,9.90
2022-12-23T23:48:59.180Z,9.90
2022-12-23T23:51:26.470Z,9.80
2022-12-23T23:53:53.722Z,9.70
2022-12-23T23:56:25.892Z,9.60
2022-12-23T23:58:54.222Z,9.60
